createdAt,value
2022-08-05T00:00:49.934Z,6.6
2022-08-05T00:02:51.795Z,9.5
2022-08-05T00:06:47.743Z,7.8
2022-08-05T00:08:47.645Z,8.3
2022-08-05T00:12:56.719Z,8.4
2022-08-05T00:14:47.933Z,8.9
2022-08-05T00:16:52.511Z,7.3
2022-08-05T00:18:49.523Z,9.0
2022-08-05T00:20:48.067Z,9.5
2022-08-05T00:22:59.622Z,8.5
2022-08-05T00:24:48.096Z,8.2
2022-08-05T00:26:51.868Z,9.0
2022-08-05T00:28:49.262Z,11.5
2022-08-05T00:30:51.958Z,9.8
2022-08-05T00:32:48.803Z,8.8
2022-08-05T00:40:53.347Z,8.3
2022-08-05T00:42:49.103Z,8.1
2022-08-05T00:46:54.006Z,10.7
2022-08-05T00:48:50.644Z,13.0
2022-08-05T00:50:49.920Z,10.4
2022-08-05T00:52:48.430Z,10.1
2022-08-05T00:54:48.346Z,11.8
2022-08-05T00:56:51.621Z,12.3
2022-08-05T00:58:48.310Z,10.6
2022-08-05T01:00:50.314Z,14.0
2022-08-05T01:02:50.075Z,13.3
2022-08-05T01:04:50.440Z,9.6
2022-08-05T01:06:49.007Z,9.1
2022-08-05T01:08:48.566Z,10.8
2022-08-05T01:13:03.248Z,10.1
2022-08-05T01:14:55.121Z,11.7
2022-08-05T01:18:53.784Z,10.2
2022-08-05T01:21:00.219Z,9.2
2022-08-05T01:23:20.074Z,11.3
2022-08-05T01:25:05.025Z,9.5
2022-08-05T01:27:00.535Z,12.6
2022-08-05T01:28:52.617Z,10.3
2022-08-05T01:30:55.445Z,10.5
2022-08-05T01:32:50.991Z,10.9
2022-08-05T01:37:00.453Z,10.3
2022-08-05T01:38:49.865Z,9.8
2022-08-05T01:40:50.921Z,11.7
2022-08-05T01:42:50.448Z,10.8
2022-08-05T01:44:54.387Z,11.0
2022-08-05T01:46:48.941Z,10.8
2022-08-05T01:48:50.750Z,12.2
2022-08-05T01:50:51.096Z,11.9
2022-08-05T01:52:51.790Z,9.7
2022-08-05T01:54:53.023Z,10.1
2022-08-05T01:58:12.659Z,10.2
2022-08-05T01:58:51.099Z,10.6
2022-08-05T02:00:51.302Z,9.5
2022-08-05T02:02:55.697Z,11.2
2022-08-05T02:04:49.945Z,11.0
2022-08-05T02:06:48.877Z,11.7
2022-08-05T02:08:58.599Z,10.2
2022-08-05T02:10:52.967Z,11.1
2022-08-05T02:12:53.635Z,9.9
2022-08-05T02:14:55.431Z,11.1
2022-08-05T02:16:52.984Z,10.4
2022-08-05T02:18:51.660Z,10.2
2022-08-05T02:22:56.201Z,10.1
2022-08-05T02:24:52.266Z,9.9
2022-08-05T02:28:49.625Z,11.0
2022-08-05T02:32:51.507Z,12.2
2022-08-05T02:34:54.834Z,8.7
2022-08-05T02:36:52.355Z,11.3
2022-08-05T02:38:52.900Z,11.1
2022-08-05T02:40:49.067Z,9.1
2022-08-05T02:42:52.801Z,9.9
2022-08-05T02:44:49.996Z,10.2
2022-08-05T02:46:58.978Z,9.3
2022-08-05T02:48:49.982Z,11.1
2022-08-05T02:52:48.774Z,10.4
2022-08-05T02:54:50.891Z,10.1
2022-08-05T02:56:49.376Z,10.7
2022-08-05T02:58:51.219Z,9.3
2022-08-05T03:00:50.164Z,11.2
2022-08-05T03:02:49.637Z,11.8
2022-08-05T03:04:53.339Z,8.2
2022-08-05T03:06:56.226Z,11.2
2022-08-05T03:08:52.338Z,11.7
2022-08-05T03:12:48.776Z,11.5
2022-08-05T03:14:48.306Z,11.9
2022-08-05T03:16:48.611Z,10.8
2022-08-05T03:18:49.010Z,8.6
2022-08-05T03:20:48.885Z,10.7
2022-08-05T03:22:50.014Z,10.4
2022-08-05T03:24:50.907Z,9.1
2022-08-05T03:26:49.328Z,11.1
2022-08-05T03:28:48.721Z,10.1
2022-08-05T03:30:49.317Z,11.3
2022-08-05T03:32:48.425Z,11.7
2022-08-05T03:34:50.966Z,12.8
2022-08-05T03:38:53.421Z,13.3
2022-08-05T03:42:52.477Z,9.1
2022-08-05T03:44:48.361Z,12.8
2022-08-05T03:46:48.834Z,11.2
2022-08-05T03:48:48.309Z,10.2
2022-08-05T03:50:54.609Z,10.2
2022-08-05T03:55:49.730Z,11.8
2022-08-05T03:55:53.092Z,11.6
2022-08-05T03:56:49.959Z,10.5
2022-08-05T03:58:52.729Z,13.9
2022-08-05T04:00:51.572Z,12.4
2022-08-05T04:02:57.532Z,11.6
2022-08-05T04:04:48.529Z,11.9
2022-08-05T04:06:51.055Z,11.6
2022-08-05T04:08:49.067Z,12.1
2022-08-05T04:12:48.775Z,12.6
2022-08-05T04:14:49.424Z,15.4
2022-08-05T04:16:48.539Z,11.9
2022-08-05T04:18:48.597Z,14.5
2022-08-05T04:20:53.091Z,14.1
2022-08-05T04:22:48.869Z,13.2
2022-08-05T04:24:52.545Z,16.1
2022-08-05T04:26:48.982Z,12.7
2022-08-05T04:28:51.782Z,13.4
2022-08-05T04:30:48.548Z,17.7
2022-08-05T04:32:48.407Z,12.9
2022-08-05T04:34:48.427Z,13.6
2022-08-05T04:36:50.089Z,13.6
2022-08-05T04:38:51.043Z,14.1
2022-08-05T04:40:50.867Z,14.3
2022-08-05T04:42:48.683Z,13.7
2022-08-05T04:44:47.977Z,13.7
2022-08-05T04:48:47.931Z,14.0
2022-08-05T04:51:03.574Z,13.3
2022-08-05T04:52:47.774Z,14.7
2022-08-05T04:54:49.376Z,16.3
2022-08-05T04:56:47.734Z,11.4
2022-08-05T04:58:47.654Z,13.2
2022-08-05T05:00:50.834Z,15.1
2022-08-05T05:02:47.800Z,12.2
2022-08-05T05:04:50.559Z,13.6
2022-08-05T05:06:52.033Z,15.4
2022-08-05T05:08:50.089Z,13.0
2022-08-05T05:10:56.096Z,15.3
2022-08-05T05:14:50.865Z,12.6
2022-08-05T05:16:47.495Z,13.8
2022-08-05T05:19:08.996Z,13.2
2022-08-05T05:20:47.499Z,13.9
2022-08-05T05:22:47.430Z,11.9
2022-08-05T05:24:58.677Z,13.9
2022-08-05T05:26:48.003Z,12.2
2022-08-05T05:28:47.371Z,13.7
2022-08-05T05:30:49.710Z,15.3
2022-08-05T05:32:47.681Z,14.3
2022-08-05T05:34:47.247Z,15.0
2022-08-05T05:36:47.464Z,14.1
2022-08-05T05:38:47.186Z,14.0
2022-08-05T05:40:51.451Z,16.0
2022-08-05T05:42:47.543Z,11.7
2022-08-05T05:44:47.177Z,13.2
2022-08-05T05:46:47.811Z,13.3
2022-08-05T05:48:48.110Z,12.9
2022-08-05T05:50:47.303Z,15.9
2022-08-05T05:52:47.639Z,11.7
2022-08-05T05:54:51.012Z,12.9
2022-08-05T05:56:48.040Z,14.2
2022-08-05T05:58:47.038Z,14.2
2022-08-05T06:00:46.954Z,14.7
2022-08-05T06:02:46.998Z,12.4
2022-08-05T06:04:49.213Z,12.6
2022-08-05T06:06:48.918Z,13.8
2022-08-05T06:08:49.258Z,15.0
2022-08-05T06:12:46.794Z,14.0
2022-08-05T06:14:46.971Z,12.2
2022-08-05T06:16:46.756Z,12.6
2022-08-05T06:18:46.798Z,13.4
2022-08-05T06:20:47.701Z,14.8
2022-08-05T06:22:46.661Z,11.0
2022-08-05T06:24:48.420Z,14.4
2022-08-05T06:26:52.334Z,11.6
2022-08-05T06:28:46.648Z,13.8
2022-08-05T06:30:46.931Z,11.8
2022-08-05T06:32:46.917Z,12.7
2022-08-05T06:34:46.513Z,15.6
2022-08-05T06:36:57.472Z,12.9
2022-08-05T06:38:47.070Z,14.0
2022-08-05T06:40:46.589Z,12.8
2022-08-05T06:42:47.155Z,14.1
2022-08-05T06:44:46.505Z,13.8
2022-08-05T06:46:46.384Z,15.1
2022-08-05T06:48:55.543Z,14.9
2022-08-05T06:50:46.399Z,13.0
2022-08-05T06:53:03.605Z,13.2
2022-08-05T06:54:46.381Z,12.7
2022-08-05T06:56:54.683Z,12.8
2022-08-05T06:58:46.766Z,14.1
2022-08-05T07:00:46.355Z,13.7
2022-08-05T07:02:47.060Z,14.1
2022-08-05T07:06:46.452Z,14.5
2022-08-05T07:08:48.077Z,14.9
2022-08-05T07:10:53.305Z,13.8
2022-08-05T07:12:56.093Z,13.4
2022-08-05T07:14:56.234Z,15.6
2022-08-05T07:17:56.597Z,13.4
2022-08-05T07:18:47.949Z,15.0
2022-08-05T07:20:46.456Z,13.5
2022-08-05T07:24:52.653Z,12.5
2022-08-05T07:26:47.320Z,13.5
2022-08-05T07:28:46.291Z,14.4
2022-08-05T07:30:50.356Z,16.1
2022-08-05T07:32:50.904Z,13.4
2022-08-05T07:34:46.420Z,14.1
2022-08-05T07:36:46.311Z,13.4
2022-08-05T07:38:46.305Z,13.3
2022-08-05T07:40:46.411Z,12.0
2022-08-05T07:42:45.999Z,13.0
2022-08-05T07:44:47.342Z,13.9
2022-08-05T07:49:02.247Z,12.1
2022-08-05T07:50:45.834Z,11.7
2022-08-05T07:52:45.870Z,13.8
2022-08-05T07:54:49.112Z,12.0
2022-08-05T07:57:02.007Z,12.2
2022-08-05T07:58:57.214Z,13.6
2022-08-05T08:00:45.879Z,14.3
2022-08-05T08:03:14.208Z,13.3
2022-08-05T08:06:45.455Z,13.0
2022-08-05T08:08:45.392Z,14.2
2022-08-05T08:10:48.627Z,13.3
2022-08-05T08:12:49.305Z,11.7
2022-08-05T08:14:46.828Z,16.3
2022-08-05T08:16:50.821Z,14.5
2022-08-05T08:18:50.200Z,13.6
2022-08-05T08:21:02.123Z,12.9
2022-08-05T08:22:50.051Z,15.1
2022-08-05T08:24:51.119Z,11.1
2022-08-05T08:26:45.640Z,12.9
2022-08-05T08:28:55.047Z,13.2
2022-08-05T08:30:47.969Z,11.3
2022-08-05T08:32:45.316Z,13.2
2022-08-05T08:34:45.282Z,10.4
2022-08-05T08:36:48.971Z,10.5
2022-08-05T08:40:51.710Z,11.4
2022-08-05T08:42:50.569Z,10.1
2022-08-05T08:46:47.405Z,11.1
2022-08-05T08:49:06.402Z,12.7
2022-08-05T08:52:51.811Z,13.1
2022-08-05T08:54:47.123Z,11.9
2022-08-05T08:56:47.583Z,11.2
2022-08-05T08:58:47.618Z,10.1
2022-08-05T09:02:45.547Z,9.5
2022-08-05T09:04:58.450Z,11.8
2022-08-05T09:06:45.448Z,8.9
2022-08-05T09:10:46.725Z,9.9
2022-08-05T09:12:46.091Z,11.5
2022-08-05T09:14:58.634Z,10.1
2022-08-05T09:16:48.826Z,8.0
2022-08-05T09:18:45.516Z,8.4
2022-08-05T09:20:46.102Z,7.8
2022-08-05T09:23:07.551Z,8.1
2022-08-05T09:26:51.781Z,10.4
2022-08-05T09:28:46.574Z,8.3
2022-08-05T09:30:53.610Z,9.3
2022-08-05T09:32:46.688Z,8.3
2022-08-05T09:34:48.156Z,7.5
2022-08-05T09:36:55.805Z,8.0
2022-08-05T09:38:56.182Z,8.4
2022-08-05T09:40:53.569Z,9.6
2022-08-05T09:42:48.699Z,8.6
2022-08-05T09:44:49.434Z,9.2
2022-08-05T09:46:51.811Z,7.2
2022-08-05T09:48:55.482Z,7.0
2022-08-05T09:50:49.688Z,9.8
2022-08-05T09:52:47.334Z,5.4
2022-08-05T09:54:57.703Z,5.4
2022-08-05T09:56:51.502Z,5.3
2022-08-05T10:00:55.398Z,3.8
2022-08-05T10:02:48.942Z,6.1
2022-08-05T10:04:47.404Z,4.6
2022-08-05T10:06:59.043Z,5.6
2022-08-05T10:08:53.843Z,5.2
2022-08-05T10:10:48.249Z,5.0
2022-08-05T10:12:49.595Z,6.8
2022-08-05T10:14:46.000Z,5.2
2022-08-05T10:16:52.852Z,5.1
2022-08-05T10:18:48.282Z,5.9
2022-08-05T10:20:49.307Z,6.3
2022-08-05T10:22:48.795Z,4.7
2022-08-05T10:24:46.344Z,4.6
2022-08-05T10:26:51.823Z,7.0
2022-08-05T10:28:46.937Z,4.9
2022-08-05T10:32:47.404Z,4.8
2022-08-05T10:34:47.264Z,5.0
2022-08-05T10:36:46.926Z,5.5
2022-08-05T10:38:48.636Z,2.9
2022-08-05T10:40:58.179Z,4.0
2022-08-05T10:42:51.483Z,4.2
2022-08-05T10:44:47.698Z,4.8
2022-08-05T10:46:50.865Z,6.1
2022-08-05T10:52:53.005Z,3.4
2022-08-05T10:54:58.296Z,3.3
2022-08-05T10:58:50.703Z,5.3
2022-08-05T11:00:47.259Z,4.2
2022-08-05T11:03:24.233Z,3.0
2022-08-05T11:04:53.455Z,5.2
2022-08-05T11:09:06.675Z,2.7
2022-08-05T11:10:50.324Z,4.5
2022-08-05T11:12:54.459Z,5.5
2022-08-05T11:17:58.882Z,2.9
2022-08-05T11:18:47.309Z,4.5
2022-08-05T11:20:50.141Z,4.2
2022-08-05T11:26:49.704Z,5.0
2022-08-05T11:31:09.377Z,4.1
2022-08-05T11:32:47.766Z,4.2
2022-08-05T11:34:54.111Z,2.6
2022-08-05T11:36:52.870Z,5.4
2022-08-05T11:38:53.619Z,4.2
2022-08-05T11:41:00.847Z,4.7
2022-08-05T11:42:47.971Z,3.2
2022-08-05T11:44:53.822Z,5.2
2022-08-05T11:47:09.282Z,3.5
2022-08-05T11:52:52.036Z,1.9
2022-08-05T11:54:55.024Z,3.3
2022-08-05T11:56:50.688Z,4.7
2022-08-05T11:58:53.176Z,3.7
2022-08-05T12:00:52.860Z,3.1
2022-08-05T12:02:48.649Z,4.6
2022-08-05T12:04:59.009Z,4.8
2022-08-05T12:06:49.175Z,4.3
2022-08-05T12:08:51.508Z,3.3
2022-08-05T12:10:50.478Z,2.9
2022-08-05T12:12:59.299Z,5.4
2022-08-05T12:14:49.500Z,5.5
2022-08-05T12:16:49.116Z,3.7
2022-08-05T12:20:49.216Z,5.6
2022-08-05T12:22:51.863Z,4.1
2022-08-05T12:24:50.895Z,5.0
2022-08-05T12:26:51.814Z,2.9
2022-08-05T12:28:49.656Z,3.0
2022-08-05T12:30:49.675Z,4.5
2022-08-05T12:32:50.601Z,4.0
2022-08-05T12:36:52.411Z,2.9
2022-08-05T12:40:50.093Z,5.5
2022-08-05T12:42:50.289Z,2.3
2022-08-05T12:44:50.045Z,3.8
2022-08-05T12:46:52.805Z,4.2
2022-08-05T12:52:56.173Z,2.5
2022-08-05T12:56:52.470Z,2.3
2022-08-05T12:59:13.827Z,3.5
2022-08-05T13:02:03.552Z,3.3
2022-08-05T13:02:55.647Z,4.2
2022-08-05T13:06:52.214Z,5.7
2022-08-05T13:08:52.620Z,3.0
2022-08-05T13:12:58.115Z,5.5
2022-08-05T13:15:05.052Z,5.8
2022-08-05T13:16:54.289Z,4.4
2022-08-05T13:18:55.207Z,3.6
2022-08-05T13:20:52.024Z,3.7
2022-08-05T13:24:57.973Z,2.1
2022-08-05T13:26:52.084Z,2.8
2022-08-05T13:28:53.322Z,5.8
2022-08-05T13:30:53.169Z,2.7
2022-08-05T13:32:52.856Z,4.3
2022-08-05T13:42:55.605Z,3.3
2022-08-05T13:44:54.523Z,3.0
2022-08-05T13:47:02.438Z,3.5
2022-08-05T13:48:57.091Z,3.0
2022-08-05T13:50:52.886Z,3.2
2022-08-05T13:52:52.980Z,3.8
2022-08-05T13:54:53.697Z,3.0
2022-08-05T13:56:53.207Z,3.6
2022-08-05T13:58:53.834Z,2.9
2022-08-05T14:05:03.415Z,3.9
2022-08-05T14:06:58.758Z,3.4
2022-08-05T14:08:53.530Z,6.1
2022-08-05T14:10:53.990Z,2.4
2022-08-05T14:12:54.608Z,1.8
2022-08-05T14:14:53.822Z,2.7
2022-08-05T14:16:55.389Z,3.0
2022-08-05T14:20:54.848Z,2.6
2022-08-05T14:22:54.310Z,2.2
2022-08-05T14:24:54.262Z,2.1
2022-08-05T14:28:54.581Z,2.6
2022-08-05T14:30:54.832Z,4.0
2022-08-05T14:34:56.780Z,2.6
2022-08-05T14:36:54.783Z,4.2
2022-08-05T14:40:55.296Z,1.2
2022-08-05T14:42:55.560Z,2.9
2022-08-05T14:46:55.408Z,3.3
2022-08-05T14:48:56.920Z,4.5
2022-08-05T14:52:58.747Z,2.4
2022-08-05T14:54:55.609Z,3.6
2022-08-05T14:56:56.802Z,4.1
2022-08-05T15:00:58.946Z,3.5
2022-08-05T15:04:56.120Z,2.6
2022-08-05T15:06:56.914Z,1.6
2022-08-05T15:08:57.997Z,2.4
2022-08-05T15:10:56.185Z,2.6
2022-08-05T15:13:00.394Z,1.7
2022-08-05T15:14:57.737Z,4.4
2022-08-05T15:18:56.662Z,3.4
2022-08-05T15:24:58.051Z,2.5
2022-08-05T15:28:56.749Z,3.7
2022-08-05T15:30:57.133Z,2.1
2022-08-05T15:32:56.956Z,3.0
2022-08-05T15:34:56.954Z,2.5
2022-08-05T15:36:56.929Z,2.3
2022-08-05T15:40:59.096Z,2.5
2022-08-05T15:41:20.860Z,2.9
2022-08-05T15:43:09.138Z,5.7
2022-08-05T15:44:57.216Z,4.4
2022-08-05T15:46:59.740Z,3.3
2022-08-05T15:49:00.703Z,2.3
2022-08-05T15:50:57.617Z,2.4
2022-08-05T16:01:04.267Z,5.0
2022-08-05T16:02:58.126Z,5.0
2022-08-05T16:04:58.318Z,2.3
2022-08-05T16:08:58.336Z,3.8
2022-08-05T16:12:58.372Z,3.3
2022-08-05T16:14:58.449Z,2.7
2022-08-05T16:16:58.515Z,4.0
2022-08-05T16:22:58.907Z,2.8
2022-08-05T16:24:58.785Z,2.5
2022-08-05T16:28:59.034Z,2.4
2022-08-05T16:30:59.005Z,3.1
2022-08-05T16:33:00.342Z,3.0
2022-08-05T16:34:59.181Z,2.3
2022-08-05T16:38:59.318Z,1.5
2022-08-05T16:42:59.339Z,4.0
2022-08-05T16:44:59.389Z,3.7
2022-08-05T16:46:59.454Z,3.3
2022-08-05T16:50:59.663Z,2.4
2022-08-05T16:56:59.801Z,3.4
2022-08-05T16:59:08.149Z,3.1
2022-08-05T17:00:59.989Z,3.7
2022-08-05T17:03:00.045Z,6.5
2022-08-05T17:04:59.879Z,1.7
2022-08-05T17:09:00.080Z,2.8
2022-08-05T17:11:00.566Z,4.0
2022-08-05T17:13:00.219Z,2.7
2022-08-05T17:15:00.587Z,2.3
2022-08-05T17:17:00.487Z,4.3
2022-08-05T17:21:00.812Z,4.6
2022-08-05T17:23:00.510Z,1.7
2022-08-05T17:25:00.825Z,2.0
2022-08-05T17:29:00.557Z,2.7
2022-08-05T17:31:01.099Z,3.8
2022-08-05T17:33:00.657Z,4.3
2022-08-05T17:35:01.294Z,4.4
2022-08-05T17:37:01.207Z,4.6
2022-08-05T17:39:01.237Z,3.7
2022-08-05T17:41:01.043Z,2.6
2022-08-05T17:47:00.983Z,4.2
2022-08-05T17:49:01.102Z,4.8
2022-08-05T17:51:00.942Z,4.0
2022-08-05T17:53:03.101Z,4.9
2022-08-05T17:55:01.383Z,4.3
2022-08-05T17:59:01.221Z,4.5
2022-08-05T18:01:01.281Z,3.0
2022-08-05T18:03:01.452Z,3.2
2022-08-05T18:05:02.789Z,3.6
2022-08-05T18:09:03.412Z,4.9
2022-08-05T18:11:03.115Z,4.3
2022-08-05T18:13:01.851Z,4.1
2022-08-05T18:15:01.401Z,4.4
2022-08-05T18:25:01.648Z,2.4
2022-08-05T18:27:01.381Z,6.1
2022-08-05T18:31:01.468Z,3.0
2022-08-05T18:33:01.730Z,4.9
2022-08-05T18:35:01.551Z,5.3
2022-08-05T18:37:01.549Z,3.6
2022-08-05T18:41:58.404Z,5.3
2022-08-05T18:43:02.995Z,6.0
2022-08-05T18:45:01.586Z,4.6
2022-08-05T18:49:11.542Z,4.0
2022-08-05T18:55:04.432Z,4.0
2022-08-05T18:59:01.502Z,4.8
2022-08-05T19:01:01.857Z,3.8
2022-08-05T19:03:03.191Z,3.7
2022-08-05T19:06:06.080Z,4.7
2022-08-05T19:09:01.598Z,4.1
2022-08-05T19:15:02.696Z,5.0
2022-08-05T19:19:01.223Z,6.0
2022-08-05T19:21:01.342Z,5.9
2022-08-05T19:27:03.921Z,2.8
2022-08-05T19:29:01.101Z,5.5
2022-08-05T19:31:01.425Z,4.0
2022-08-05T19:33:01.154Z,3.8
2022-08-05T19:35:05.847Z,4.3
2022-08-05T19:39:01.820Z,3.2
2022-08-05T19:41:00.842Z,4.8
2022-08-05T19:43:05.252Z,3.7
2022-08-05T19:47:01.658Z,2.3
2022-08-05T19:49:03.061Z,4.5
2022-08-05T19:55:06.831Z,4.4
2022-08-05T19:57:02.067Z,3.8
2022-08-05T19:59:51.105Z,4.6
2022-08-05T20:05:00.802Z,3.7
2022-08-05T20:07:00.937Z,6.0
2022-08-05T20:11:00.686Z,2.5
2022-08-05T20:13:00.475Z,3.9
2022-08-05T20:15:00.435Z,3.8
2022-08-05T20:17:03.902Z,3.1
2022-08-05T20:19:00.710Z,4.4
2022-08-05T20:21:00.039Z,5.2
2022-08-05T20:23:03.019Z,3.7
2022-08-05T20:24:59.399Z,4.2
2022-08-05T20:26:59.471Z,4.6
2022-08-05T20:29:00.642Z,3.1
2022-08-05T20:32:59.362Z,4.8
2022-08-05T20:34:58.973Z,3.5
2022-08-05T20:36:58.795Z,2.8
2022-08-05T20:38:58.783Z,2.9
2022-08-05T20:40:59.020Z,3.9
2022-08-05T20:43:00.183Z,3.6
2022-08-05T20:44:58.600Z,3.0
2022-08-05T20:47:00.921Z,2.2
2022-08-05T20:50:58.375Z,5.3
2022-08-05T20:52:58.468Z,3.0
2022-08-05T20:55:54.254Z,4.4
2022-08-05T20:56:58.174Z,4.0
2022-08-05T21:00:58.448Z,4.1
2022-08-05T21:03:03.614Z,2.9
2022-08-05T21:06:57.924Z,4.0
2022-08-05T21:08:57.580Z,3.4
2022-08-05T21:16:57.140Z,4.8
2022-08-05T21:20:57.077Z,2.6
2022-08-05T21:24:57.106Z,3.4
2022-08-05T21:26:58.670Z,2.8
2022-08-05T21:32:56.887Z,4.0
2022-08-05T21:35:08.887Z,3.7
2022-08-05T21:36:56.252Z,5.0
2022-08-05T21:38:56.076Z,3.0
2022-08-05T21:40:56.664Z,4.6
2022-08-05T21:42:56.082Z,5.6
2022-08-05T21:44:55.595Z,5.4
2022-08-05T21:46:55.734Z,3.1
2022-08-05T21:48:56.641Z,3.3
2022-08-05T21:50:55.338Z,3.5
2022-08-05T21:52:59.153Z,5.9
2022-08-05T21:54:55.523Z,3.2
2022-08-05T21:57:04.899Z,2.8
2022-08-05T21:58:57.578Z,4.0
2022-08-05T22:00:54.620Z,3.1
2022-08-05T22:04:57.182Z,4.9
2022-08-05T22:06:54.282Z,5.5
2022-08-05T22:08:54.145Z,4.3
2022-08-05T22:12:55.111Z,4.2
2022-08-05T22:14:53.631Z,3.7
2022-08-05T22:16:57.924Z,4.6
2022-08-05T22:20:54.756Z,4.5
2022-08-05T22:25:02.912Z,4.0
2022-08-05T22:27:06.764Z,5.3
2022-08-05T22:28:53.129Z,4.7
2022-08-05T22:34:52.951Z,7.0
2022-08-05T22:36:52.772Z,4.0
2022-08-05T22:40:54.839Z,3.2
2022-08-05T22:42:57.789Z,5.6
2022-08-05T22:44:56.773Z,4.4
2022-08-05T22:46:51.587Z,3.7
2022-08-05T22:48:51.438Z,4.7
2022-08-05T22:50:56.256Z,3.5
2022-08-05T22:54:50.999Z,3.6
2022-08-05T22:56:50.722Z,4.0
2022-08-05T22:58:50.607Z,3.8
2022-08-05T23:02:52.345Z,4.8
2022-08-05T23:04:51.298Z,4.4
2022-08-05T23:06:49.936Z,4.4
2022-08-05T23:08:52.145Z,5.5
2022-08-05T23:10:54.653Z,2.7
2022-08-05T23:12:51.374Z,5.3
2022-08-05T23:14:49.495Z,4.4
2022-08-05T23:16:59.119Z,6.1
2022-08-05T23:18:48.969Z,3.5
2022-08-05T23:20:48.847Z,5.3
2022-08-05T23:22:48.823Z,2.8
2022-08-05T23:24:51.064Z,3.3
2022-08-05T23:26:48.658Z,6.1
2022-08-05T23:28:48.603Z,4.6
2022-08-05T23:30:53.286Z,4.1
2022-08-05T23:32:48.799Z,2.8
2022-08-05T23:36:47.677Z,2.7
2022-08-05T23:38:47.705Z,5.8
2022-08-05T23:40:49.779Z,4.2
2022-08-05T23:42:47.352Z,4.3
2022-08-05T23:46:47.204Z,3.8
2022-08-05T23:52:50.599Z,6.3
2022-08-05T23:54:48.373Z,3.2
2022-08-05T23:56:46.075Z,6.0
